Time;durP1;ratioP1;P1;durP2;ratioP2;P2;SDS_P1;SDS_P2;PMS_P1;PMS_P2;Temp;Humidity;BMP_temperature;BMP_pressure;BME280_temperature;BME280_humidity;BME280_pressure;Samples;Min_cycle;Max_cycle;Signal;HPM_P1;HPM_P2
2023/10/27 00:01:36;;;;;;;;;;;15.50;95.60;;;;;;4154124;28;19935;-45
2023/10/27 00:04:18;;;;;;;;;;;15.50;95.60;;;;;;4163232;28;20385;-50
2023/10/27 00:06:59;;;;;;;;;;;15.50;95.60;;;;;;4154388;28;19955;-49
2023/10/27 00:09:40;;;;;;;;;;;15.50;95.60;;;;;;4152895;28;20417;-47
2023/10/27 00:12:20;;;;;;;;;;;15.50;95.70;;;;;;4146126;28;19936;-50
2023/10/27 00:15:01;;;;;;;;;;;15.50;95.60;;;;;;4153356;28;19978;-47
2023/10/27 00:17:41;;;;;;;;;;;15.50;95.70;;;;;;4154306;28;19936;-51
2023/10/27 00:20:24;;;;;;;;;;;15.40;95.60;;;;;;4138749;28;19932;-47
2023/10/27 00:23:04;;;;;;;;;;;15.50;95.70;;;;;;4138587;28;19933;-48
2023/10/27 00:25:45;;;;;;;;;;;15.50;95.70;;;;;;4145440;28;20345;-49
2023/10/27 00:28:26;;;;;;;;;;;15.50;95.70;;;;;;4154709;28;20015;-48
2023/10/27 00:31:06;;;;;;;;;;;15.50;95.70;;;;;;4151811;28;19986;-49
2023/10/27 00:33:47;;;;;;;;;;;15.50;95.70;;;;;;4150691;28;20063;-48
2023/10/27 00:36:30;;;;;;;;;;;15.50;95.70;;;;;;4150683;28;20063;-54
2023/10/27 00:39:11;;;;;;;;;;;15.40;95.70;;;;;;4156141;28;20302;-48
2023/10/27 00:41:51;;;;;;;;;;;15.40;95.70;;;;;;4158468;28;20302;-48
2023/10/27 00:44:32;;;;;;;;;;;15.40;95.70;;;;;;4168059;28;19935;-49
2023/10/27 00:47:13;;;;;;;;;;;15.40;95.70;;;;;;4157192;28;19972;-50
2023/10/27 00:49:55;;;;;;;;;;;15.40;95.70;;;;;;4156215;28;19936;-49
2023/10/27 00:52:37;;;;;;;;;;;15.40;96.10;;;;;;4157824;28;20309;-51
2023/10/27 00:55:18;;;;;;;;;;;15.40;95.80;;;;;;4157561;28;20006;-50
2023/10/27 00:57:59;;;;;;;;;;;15.40;95.80;;;;;;4140173;28;20294;-52
2023/10/27 01:00:40;;;;;;;;;;;15.40;95.80;;;;;;4142878;28;20405;-49
2023/10/27 01:03:21;;;;;;;;;;;15.40;95.80;;;;;;4157526;28;20289;-49
2023/10/27 01:06:02;;;;;;;;;;;15.40;95.80;;;;;;4140407;28;19933;-49
2023/10/27 01:08:44;;;;;;;;;;;15.40;95.70;;;;;;4154980;28;20018;-52
2023/10/27 01:11:26;;;;;;;;;;;15.40;95.70;;;;;;4156162;28;20312;-51
2023/10/27 01:14:07;;;;;;;;;;;15.40;95.60;;;;;;4156440;28;19963;-49
2023/10/27 01:16:49;;;;;;;;;;;15.40;95.60;;;;;;4141241;28;19937;-49
2023/10/27 01:19:29;;;;;;;;;;;15.40;95.60;;;;;;4166532;28;20019;-51
2023/10/27 01:22:12;;;;;;;;;;;15.50;95.50;;;;;;4167393;28;20384;-47
2023/10/27 01:24:55;;;;;;;;;;;15.50;95.30;;;;;;4144945;28;19936;-47
2023/10/27 01:27:35;;;;;;;;;;;15.50;95.30;;;;;;4157097;28;19982;-47
2023/10/27 01:30:16;;;;;;;;;;;15.60;95.30;;;;;;4153484;28;20396;-47
2023/10/27 01:32:57;;;;;;;;;;;15.60;95.30;;;;;;4156545;28;20416;-50
2023/10/27 01:35:38;;;;;;;;;;;15.60;95.20;;;;;;4156949;28;20083;-50
2023/10/27 01:38:18;;;;;;;;;;;15.60;95.20;;;;;;4156760;28;20565;-53
2023/10/27 01:41:01;;;;;;;;;;;15.70;95.20;;;;;;4150059;28;19977;-47
2023/10/27 01:43:42;;;;;;;;;;;15.70;95.20;;;;;;4139361;28;19937;-47
2023/10/27 01:46:23;;;;;;;;;;;15.70;95.20;;;;;;4139563;28;19932;-48
2023/10/27 01:49:04;;;;;;;;;;;15.70;95.60;;;;;;4153745;28;19948;-47
2023/10/27 01:51:45;;;;;;;;;;;15.70;95.30;;;;;;4139241;28;19938;-49
2023/10/27 01:54:26;;;;;;;;;;;15.70;95.20;;;;;;4139242;28;20285;-51
2023/10/27 01:57:08;;;;;;;;;;;15.70;95.60;;;;;;4153790;28;19932;-50
2023/10/27 01:59:48;;;;;;;;;;;15.70;95.30;;;;;;4166697;28;20055;-52
2023/10/27 02:02:29;;;;;;;;;;;15.80;95.40;;;;;;4152295;28;19936;-50
2023/10/27 02:05:10;;;;;;;;;;;15.80;95.80;;;;;;4150293;28;19956;-50
2023/10/27 02:07:51;;;;;;;;;;;15.80;95.40;;;;;;4139845;28;20299;-47
2023/10/27 02:10:31;;;;;;;;;;;15.80;95.30;;;;;;4139799;28;19932;-48
2023/10/27 02:13:13;;;;;;;;;;;15.90;95.30;;;;;;4151682;28;20044;-51
2023/10/27 02:15:54;;;;;;;;;;;15.90;95.20;;;;;;4155440;28;19948;-47
2023/10/27 02:18:35;;;;;;;;;;;15.90;95.20;;;;;;4140776;28;19967;-48
2023/10/27 02:21:18;;;;;;;;;;;15.90;95.30;;;;;;4138641;28;19932;-48
2023/10/27 02:23:59;;;;;;;;;;;15.90;95.20;;;;;;4154804;28;20285;-46
2023/10/27 02:26:40;;;;;;;;;;;15.80;95.20;;;;;;4140197;28;19937;-49
2023/10/27 02:29:22;;;;;;;;;;;15.90;95.30;;;;;;4140260;28;19931;-49
2023/10/27 02:32:03;;;;;;;;;;;15.90;95.60;;;;;;4130740;28;19936;-48
2023/10/27 02:34:44;;;;;;;;;;;15.90;95.10;;;;;;4139196;28;19936;-49
2023/10/27 02:37:25;;;;;;;;;;;15.90;95.00;;;;;;4151789;28;19936;-46
2023/10/27 02:40:07;;;;;;;;;;;15.90;95.10;;;;;;4155570;28;20290;-49
2023/10/27 02:42:47;;;;;;;;;;;15.90;95.10;;;;;;4156125;28;19979;-46
2023/10/27 02:45:30;;;;;;;;;;;15.90;95.00;;;;;;4154313;28;20435;-47
2023/10/27 02:48:11;;;;;;;;;;;15.90;95.10;;;;;;4154197;28;20011;-46
2023/10/27 02:50:52;;;;;;;;;;;15.90;95.10;;;;;;4155406;28;19936;-50
2023/10/27 02:53:32;;;;;;;;;;;16.00;95.10;;;;;;4153477;28;20439;-48
2023/10/27 02:56:15;;;;;;;;;;;16.00;95.00;;;;;;4138361;28;19983;-52
2023/10/27 02:58:56;;;;;;;;;;;16.00;95.00;;;;;;4152232;28;19933;-50
2023/10/27 03:01:38;;;;;;;;;;;16.00;94.90;;;;;;4154042;28;19935;-50
2023/10/27 03:04:20;;;;;;;;;;;16.00;94.90;;;;;;4155650;28;19932;-48
2023/10/27 03:07:01;;;;;;;;;;;16.00;94.80;;;;;;4154151;28;20449;-49
2023/10/27 03:09:42;;;;;;;;;;;16.00;94.90;;;;;;4153842;28;19974;-51
2023/10/27 03:12:23;;;;;;;;;;;16.00;95.30;;;;;;4152936;28;20389;-50
2023/10/27 03:15:04;;;;;;;;;;;16.00;95.00;;;;;;4155406;28;19932;-50
2023/10/27 03:17:46;;;;;;;;;;;16.00;95.00;;;;;;4154691;28;19932;-48
2023/10/27 03:20:27;;;;;;;;;;;16.00;94.90;;;;;;4138944;28;20357;-50
2023/10/27 03:23:09;;;;;;;;;;;16.00;94.90;;;;;;4154221;28;19932;-52
2023/10/27 03:25:49;;;;;;;;;;;16.00;94.90;;;;;;4154338;28;20380;-49
2023/10/27 03:28:31;;;;;;;;;;;15.90;95.30;;;;;;4134455;28;19952;-48
2023/10/27 03:31:12;;;;;;;;;;;15.90;95.00;;;;;;4153903;28;20404;-48
2023/10/27 03:33:55;;;;;;;;;;;16.00;95.10;;;;;;4138657;28;19960;-48
2023/10/27 03:36:36;;;;;;;;;;;15.90;95.50;;;;;;4139117;28;19932;-52
2023/10/27 03:39:16;;;;;;;;;;;16.00;95.10;;;;;;4144685;28;19937;-47
2023/10/27 03:41:57;;;;;;;;;;;15.90;95.00;;;;;;4150510;28;19933;-47
2023/10/27 03:44:38;;;;;;;;;;;15.90;95.40;;;;;;4137782;28;20076;-50
2023/10/27 03:47:19;;;;;;;;;;;16.00;95.00;;;;;;4126423;28;19937;-49
2023/10/27 03:50:02;;;;;;;;;;;16.00;95.10;;;;;;4137487;28;20019;-47
2023/10/27 03:52:43;;;;;;;;;;;16.00;95.10;;;;;;4153556;28;19936;-47
2023/10/27 03:55:24;;;;;;;;;;;16.10;95.00;;;;;;4164644;28;20026;-46
2023/10/27 03:58:14;;;;;;;;;;;16.10;94.80;;;;;;4153727;28;19931;-49
2023/10/27 04:00:55;;;;;;;;;;;16.10;94.80;;;;;;4137982;28;20595;-51
2023/10/27 04:03:35;;;;;;;;;;;16.10;94.90;;;;;;4145270;28;19936;-52
2023/10/27 04:06:17;;;;;;;;;;;16.10;94.70;;;;;;4152260;28;20063;-51
2023/10/27 04:08:59;;;;;;;;;;;16.10;94.80;;;;;;4154704;28;19944;-49
2023/10/27 04:11:39;;;;;;;;;;;16.10;94.70;;;;;;4154690;28;20397;-51
2023/10/27 04:14:20;;;;;;;;;;;16.10;95.00;;;;;;4153589;28;19936;-51
2023/10/27 04:17:01;;;;;;;;;;;16.10;94.60;;;;;;4139699;28;20014;-48
2023/10/27 04:19:43;;;;;;;;;;;16.10;94.40;;;;;;4138303;28;19932;-49
2023/10/27 04:22:25;;;;;;;;;;;16.10;94.30;;;;;;4154562;28;20010;-49
2023/10/27 04:25:06;;;;;;;;;;;16.00;94.40;;;;;;4153592;28;19931;-49
2023/10/27 04:27:47;;;;;;;;;;;16.10;94.30;;;;;;4154455;28;19961;-47
2023/10/27 04:30:28;;;;;;;;;;;16.10;94.30;;;;;;4151369;28;20447;-49
2023/10/27 04:33:09;;;;;;;;;;;16.10;94.30;;;;;;4153364;28;19936;-46
2023/10/27 04:35:50;;;;;;;;;;;16.20;94.20;;;;;;4154034;28;19932;-49
2023/10/27 04:38:32;;;;;;;;;;;16.20;93.90;;;;;;4138055;28;19995;-51
2023/10/27 04:41:13;;;;;;;;;;;16.20;94.30;;;;;;4148044;28;19932;-54
2023/10/27 04:43:54;;;;;;;;;;;16.20;93.80;;;;;;4134837;28;20401;-53
2023/10/27 04:46:34;;;;;;;;;;;16.20;93.80;;;;;;4146410;28;19931;-57
2023/10/27 04:49:15;;;;;;;;;;;16.20;93.60;;;;;;4154029;28;20397;-56
2023/10/27 04:51:56;;;;;;;;;;;16.20;93.70;;;;;;4137595;28;19945;-54
2023/10/27 04:54:38;;;;;;;;;;;16.20;93.50;;;;;;4137379;28;19952;-48
2023/10/27 04:57:19;;;;;;;;;;;16.20;94.00;;;;;;4124066;28;20017;-49
2023/10/27 05:00:00;;;;;;;;;;;16.20;93.60;;;;;;4152703;28;19936;-49
2023/10/27 05:02:41;;;;;;;;;;;16.20;93.60;;;;;;4138485;28;20381;-48
2023/10/27 05:05:22;;;;;;;;;;;16.20;93.70;;;;;;4136184;28;19972;-54
2023/10/27 05:08:04;;;;;;;;;;;16.20;93.50;;;;;;4138296;28;19932;-53
2023/10/27 05:10:47;;;;;;;;;;;16.30;93.60;;;;;;4137463;28;19936;-54
2023/10/27 05:13:28;;;;;;;;;;;16.30;93.70;;;;;;4153864;28;20600;-50
2023/10/27 05:16:09;;;;;;;;;;;16.40;93.70;;;;;;4122800;28;20398;-51
2023/10/27 05:18:49;;;;;;;;;;;16.40;93.40;;;;;;4131091;28;19978;-52
2023/10/27 05:21:30;;;;;;;;;;;16.40;93.40;;;;;;4146312;28;19931;-49
2023/10/27 05:24:11;;;;;;;;;;;16.40;93.60;;;;;;4149341;28;20406;-48
2023/10/27 05:26:54;;;;;;;;;;;16.30;93.50;;;;;;4140839;28;19933;-52
2023/10/27 05:29:35;;;;;;;;;;;16.30;93.80;;;;;;4155733;28;20496;-52
2023/10/27 05:32:17;;;;;;;;;;;16.30;93.70;;;;;;4156138;28;19936;-52
2023/10/27 05:34:58;;;;;;;;;;;16.30;93.60;;;;;;4156280;28;20445;-51
2023/10/27 05:37:39;;;;;;;;;;;16.20;93.80;;;;;;4156329;28;20302;-48
2023/10/27 05:40:19;;;;;;;;;;;16.20;93.80;;;;;;4157240;28;20059;-50
2023/10/27 05:43:01;;;;;;;;;;;16.10;93.90;;;;;;4155848;28;20397;-51
2023/10/27 05:45:42;;;;;;;;;;;16.10;94.10;;;;;;4155993;28;20425;-52
2023/10/27 05:48:22;;;;;;;;;;;16.10;94.30;;;;;;4156665;28;19940;-53
2023/10/27 05:51:04;;;;;;;;;;;16.10;94.20;;;;;;4156640;28;19936;-52
2023/10/27 05:53:44;;;;;;;;;;;16.20;94.10;;;;;;4156309;28;19971;-50
2023/10/27 05:56:27;;;;;;;;;;;16.20;94.00;;;;;;4154091;28;20475;-51
2023/10/27 05:59:09;;;;;;;;;;;16.20;94.00;;;;;;4140049;28;20059;-48
2023/10/27 06:01:53;;;;;;;;;;;16.20;93.90;;;;;;4156503;28;19947;-51
2023/10/27 06:04:45;;;;;;;;;;;16.20;93.90;;;;;;4140188;28;19971;-51
2023/10/27 06:07:26;;;;;;;;;;;16.20;93.90;;;;;;4139989;28;19937;-52
2023/10/27 06:10:08;;;;;;;;;;;16.20;93.80;;;;;;4137004;28;19933;-51
2023/10/27 06:12:49;;;;;;;;;;;16.10;94.00;;;;;;4156626;28;19932;-50
2023/10/27 06:15:31;;;;;;;;;;;16.10;94.00;;;;;;4156324;28;19936;-51
2023/10/27 06:18:12;;;;;;;;;;;16.10;94.10;;;;;;4132557;28;19983;-50
2023/10/27 06:20:52;;;;;;;;;;;16.00;94.70;;;;;;4140180;28;19949;-49
2023/10/27 06:23:34;;;;;;;;;;;16.00;94.40;;;;;;4156314;28;19932;-52
2023/10/27 06:26:14;;;;;;;;;;;16.00;94.60;;;;;;4140451;28;19936;-53
2023/10/27 06:28:55;;;;;;;;;;;16.00;94.80;;;;;;4156882;28;19932;-47
2023/10/27 06:31:38;;;;;;;;;;;16.00;94.70;;;;;;4138666;28;20616;-49
2023/10/27 06:34:18;;;;;;;;;;;16.10;94.60;;;;;;4152914;28;19931;-48
2023/10/27 06:37:00;;;;;;;;;;;16.10;94.50;;;;;;4139604;28;19937;-48
2023/10/27 06:39:41;;;;;;;;;;;16.20;94.40;;;;;;4154742;28;19955;-51
2023/10/27 06:42:23;;;;;;;;;;;16.30;94.30;;;;;;4156235;28;19932;-51
2023/10/27 06:45:04;;;;;;;;;;;16.30;94.00;;;;;;4156102;28;19936;-47
2023/10/27 06:47:46;;;;;;;;;;;16.30;93.80;;;;;;4139565;28;20068;-48
2023/10/27 06:50:27;;;;;;;;;;;16.40;93.70;;;;;;4144083;28;19936;-48
2023/10/27 06:53:08;;;;;;;;;;;16.40;93.70;;;;;;4123449;28;19933;-49
2023/10/27 06:55:48;;;;;;;;;;;16.40;93.50;;;;;;4139539;28;20413;-49
2023/10/27 06:58:29;;;;;;;;;;;16.50;93.60;;;;;;4137741;28;20270;-49
2023/10/27 07:01:10;;;;;;;;;;;16.50;93.50;;;;;;4164832;28;19940;-46
2023/10/27 07:03:52;;;;;;;;;;;16.50;93.50;;;;;;4154242;28;19936;-46
2023/10/27 07:06:33;;;;;;;;;;;16.50;93.40;;;;;;4154935;28;20009;-46
2023/10/27 07:09:14;;;;;;;;;;;16.50;93.20;;;;;;4139417;28;19996;-48
2023/10/27 07:11:55;;;;;;;;;;;16.50;92.90;;;;;;4141851;28;20071;-48
2023/10/27 07:14:36;;;;;;;;;;;16.60;92.90;;;;;;4147523;28;19951;-50
2023/10/27 07:17:17;;;;;;;;;;;16.60;93.00;;;;;;4155702;28;19936;-50
2023/10/27 07:19:59;;;;;;;;;;;16.60;93.10;;;;;;4138509;28;19932;-49
2023/10/27 07:22:40;;;;;;;;;;;16.50;93.10;;;;;;4144765;28;19963;-47
2023/10/27 07:25:20;;;;;;;;;;;16.50;93.10;;;;;;4136004;28;19968;-49
2023/10/27 07:28:01;;;;;;;;;;;16.50;93.10;;;;;;4138810;28;20405;-46
2023/10/27 07:30:43;;;;;;;;;;;16.40;93.20;;;;;;4138358;28;19932;-49
2023/10/27 07:33:23;;;;;;;;;;;16.40;93.20;;;;;;4152675;28;19960;-49
2023/10/27 07:36:06;;;;;;;;;;;16.30;93.30;;;;;;4143577;28;20318;-48
2023/10/27 07:38:46;;;;;;;;;;;16.30;93.60;;;;;;4155122;28;19936;-45
2023/10/27 07:41:29;;;;;;;;;;;16.20;93.30;;;;;;4155152;28;20014;-50
2023/10/27 07:44:10;;;;;;;;;;;16.20;93.40;;;;;;4155333;28;19972;-44
2023/10/27 07:46:52;;;;;;;;;;;16.10;93.80;;;;;;4154592;28;19950;-48
2023/10/27 07:49:33;;;;;;;;;;;16.10;93.50;;;;;;4152618;28;19936;-45
2023/10/27 07:52:15;;;;;;;;;;;16.00;93.40;;;;;;4139789;28;19995;-46
2023/10/27 07:54:56;;;;;;;;;;;16.00;93.50;;;;;;4154245;28;20468;-49
2023/10/27 07:57:37;;;;;;;;;;;16.00;93.50;;;;;;4140695;28;19932;-48
2023/10/27 08:00:18;;;;;;;;;;;15.90;93.50;;;;;;4140100;28;19937;-49
2023/10/27 08:02:59;;;;;;;;;;;15.90;94.00;;;;;;4154342;28;19939;-45
2023/10/27 08:05:40;;;;;;;;;;;15.90;93.80;;;;;;4153746;28;20389;-51
2023/10/27 08:08:22;;;;;;;;;;;15.90;93.70;;;;;;4152131;28;19936;-46
2023/10/27 08:11:04;;;;;;;;;;;15.80;94.20;;;;;;4154143;28;20266;-47
2023/10/27 08:13:45;;;;;;;;;;;15.80;93.90;;;;;;4144024;28;20389;-46
2023/10/27 08:16:25;;;;;;;;;;;15.90;93.90;;;;;;4153667;28;19936;-48
2023/10/27 08:19:06;;;;;;;;;;;15.90;93.80;;;;;;4154234;28;19971;-46
2023/10/27 08:21:48;;;;;;;;;;;16.00;93.70;;;;;;4154055;28;20397;-47
2023/10/27 08:24:30;;;;;;;;;;;16.00;93.70;;;;;;4154494;28;19932;-47
2023/10/27 08:27:11;;;;;;;;;;;16.10;93.60;;;;;;4163663;28;20024;-49
2023/10/27 08:29:54;;;;;;;;;;;16.10;93.60;;;;;;4139504;28;19933;-47
2023/10/27 08:32:34;;;;;;;;;;;16.10;93.70;;;;;;4138070;28;19952;-50
2023/10/27 08:35:15;;;;;;;;;;;16.20;94.10;;;;;;4138030;28;19976;-51
2023/10/27 08:37:56;;;;;;;;;;;16.20;93.60;;;;;;4154221;28;19932;-49
2023/10/27 08:40:38;;;;;;;;;;;16.20;93.60;;;;;;4152752;28;19932;-46
2023/10/27 08:43:19;;;;;;;;;;;16.20;93.60;;;;;;4153758;28;19952;-50
2023/10/27 08:46:03;;;;;;;;;;;16.30;93.50;;;;;;4154481;28;19936;-45
2023/10/27 08:48:43;;;;;;;;;;;16.30;93.40;;;;;;4154695;28;19937;-46
2023/10/27 08:51:24;;;;;;;;;;;16.30;93.40;;;;;;4155055;28;19932;-46
2023/10/27 08:54:06;;;;;;;;;;;16.30;93.40;;;;;;4153764;28;19936;-47
2023/10/27 08:56:48;;;;;;;;;;;16.30;93.30;;;;;;4154292;28;20297;-45
2023/10/27 08:59:29;;;;;;;;;;;16.30;93.80;;;;;;4153167;28;19932;-45
2023/10/27 09:02:10;;;;;;;;;;;16.40;93.40;;;;;;4156149;28;20305;-46
2023/10/27 09:04:51;;;;;;;;;;;16.40;93.40;;;;;;4150996;28;19932;-47
2023/10/27 09:07:34;;;;;;;;;;;16.40;93.30;;;;;;4157399;28;20090;-46
2023/10/27 09:10:17;;;;;;;;;;;16.40;93.30;;;;;;4157616;28;19932;-47
2023/10/27 09:13:00;;;;;;;;;;;16.40;93.20;;;;;;4167580;28;19952;-47
2023/10/27 09:15:42;;;;;;;;;;;16.40;93.50;;;;;;4157226;28;20416;-48
2023/10/27 09:18:34;;;;;;;;;;;16.40;93.20;;;;;;4157040;28;20052;-45
2023/10/27 09:21:15;;;;;;;;;;;16.50;93.30;;;;;;4124999;28;19979;-45
2023/10/27 09:23:56;;;;;;;;;;;16.50;93.60;;;;;;4140336;28;19932;-45
2023/10/27 09:26:46;;;;;;;;;;;16.40;93.10;;;;;;4148795;28;19963;-48
2023/10/27 09:29:31;;;;;;;;;;;16.40;93.10;;;;;;4139364;28;19932;-45
2023/10/27 09:32:24;;;;;;;;;;;16.30;93.10;;;;;;4140662;28;19935;-47
2023/10/27 09:35:14;;;;;;;;;;;16.40;93.20;;;;;;4139382;28;19937;-48
2023/10/27 09:37:55;;;;;;;;;;;16.40;93.60;;;;;;4140202;28;20003;-48
2023/10/27 09:40:37;;;;;;;;;;;16.50;93.00;;;;;;4154144;28;19940;-45
2023/10/27 09:43:19;;;;;;;;;;;16.50;92.80;;;;;;4156946;28;19932;-47
2023/10/27 09:46:03;;;;;;;;;;;16.50;92.80;;;;;;4156181;28;20401;-48
2023/10/27 09:48:46;;;;;;;;;;;16.50;93.20;;;;;;4141408;28;19940;-45
2023/10/27 09:51:29;;;;;;;;;;;16.60;92.70;;;;;;4138858;28;19933;-45
2023/10/27 09:54:10;;;;;;;;;;;16.60;92.80;;;;;;4156038;28;20320;-47
2023/10/27 09:56:51;;;;;;;;;;;16.60;92.80;;;;;;4154968;28;20076;-46
2023/10/27 09:59:32;;;;;;;;;;;16.50;92.80;;;;;;4155947;28;20030;-46
2023/10/27 10:02:18;;;;;;;;;;;16.60;92.90;;;;;;4156699;28;19936;-45
2023/10/27 10:05:03;;;;;;;;;;;16.50;92.90;;;;;;4140429;28;19932;-47
2023/10/27 10:07:44;;;;;;;;;;;16.50;92.90;;;;;;4140739;28;20294;-48
2023/10/27 10:10:29;;;;;;;;;;;16.50;93.00;;;;;;4140630;28;20061;-41
2023/10/27 10:13:12;;;;;;;;;;;16.50;93.30;;;;;;4142589;28;19986;-39
2023/10/27 10:15:59;;;;;;;;;;;16.50;93.50;;;;;;4148928;28;19932;-39
2023/10/27 10:18:52;;;;;;;;;;;16.50;93.70;;;;;;4155325;28;19974;-40
2023/10/27 10:21:35;;;;;;;;;;;16.50;93.90;;;;;;4154375;28;19971;-42
2023/10/27 10:24:17;;;;;;;;;;;16.60;93.90;;;;;;4155634;28;20289;-39
2023/10/27 10:27:10;;;;;;;;;;;16.60;93.90;;;;;;4147988;28;20302;-40
2023/10/27 10:29:51;;;;;;;;;;;16.70;93.90;;;;;;4146151;28;20026;-40
2023/10/27 10:32:36;;;;;;;;;;;16.70;93.70;;;;;;4156597;28;19940;-40
2023/10/27 10:35:27;;;;;;;;;;;16.70;93.70;;;;;;4155547;28;20393;-40
2023/10/27 10:38:22;;;;;;;;;;;16.70;93.60;;;;;;4149513;28;19979;-40
2023/10/27 10:41:03;;;;;;;;;;;16.60;93.90;;;;;;4154870;28;20060;-40
2023/10/27 10:43:45;;;;;;;;;;;16.60;93.50;;;;;;4155010;28;19936;-41
2023/10/27 10:46:29;;;;;;;;;;;16.60;93.50;;;;;;4155489;28;19971;-43
2023/10/27 10:49:11;;;;;;;;;;;16.50;93.50;;;;;;4150562;28;20063;-40
2023/10/27 10:51:54;;;;;;;;;;;16.50;93.60;;;;;;4137975;28;19940;-40
2023/10/27 10:54:35;;;;;;;;;;;16.40;93.70;;;;;;4154018;28;20019;-41
2023/10/27 10:57:20;;;;;;;;;;;16.40;93.70;;;;;;4155402;28;19932;-40
2023/10/27 11:00:00;;;;;;;;;;;16.40;93.70;;;;;;4155205;28;19932;-40
2023/10/27 11:02:41;;;;;;;;;;;16.30;93.80;;;;;;4155654;28;19931;-40
2023/10/27 11:05:24;;;;;;;;;;;16.30;93.80;;;;;;4153584;28;19932;-40
2023/10/27 11:08:06;;;;;;;;;;;16.30;93.90;;;;;;4124472;28;19933;-42
2023/10/27 11:10:47;;;;;;;;;;;16.20;94.00;;;;;;4133467;28;20696;-41
2023/10/27 11:13:28;;;;;;;;;;;16.20;94.10;;;;;;4152886;28;20293;-41
2023/10/27 11:16:19;;;;;;;;;;;16.20;94.10;;;;;;4155041;28;20396;-41
2023/10/27 11:19:02;;;;;;;;;;;16.10;94.00;;;;;;4154049;28;19932;-41
2023/10/27 11:21:43;;;;;;;;;;;16.10;94.00;;;;;;4154913;28;19936;-40
2023/10/27 11:24:24;;;;;;;;;;;16.10;94.00;;;;;;4152865;28;19932;-40
2023/10/27 11:27:05;;;;;;;;;;;16.10;94.30;;;;;;4155400;28;20495;-40
2023/10/27 11:29:56;;;;;;;;;;;16.10;94.40;;;;;;4155331;28;19932;-40
2023/10/27 11:32:36;;;;;;;;;;;16.00;94.50;;;;;;4154021;28;19935;-40
2023/10/27 11:35:22;;;;;;;;;;;16.00;94.50;;;;;;4153923;28;19936;-40
2023/10/27 11:38:02;;;;;;;;;;;16.00;94.50;;;;;;4155672;28;20374;-40
2023/10/27 11:40:45;;;;;;;;;;;16.00;94.50;;;;;;4151866;28;19987;-40
2023/10/27 11:43:25;;;;;;;;;;;16.00;94.50;;;;;;4154898;28;20405;-40
2023/10/27 11:46:10;;;;;;;;;;;16.00;94.50;;;;;;4154585;28;20074;-40
2023/10/27 11:48:51;;;;;;;;;;;15.90;94.40;;;;;;4152155;28;20440;-40
2023/10/27 11:51:32;;;;;;;;;;;16.00;94.50;;;;;;4154782;28;19936;-40
2023/10/27 11:54:15;;;;;;;;;;;15.90;94.60;;;;;;4138991;28;19952;-40
2023/10/27 11:56:57;;;;;;;;;;;16.00;94.60;;;;;;4138738;28;19933;-40
2023/10/27 11:59:38;;;;;;;;;;;15.90;94.60;;;;;;4137137;28;19936;-40
2023/10/27 12:02:19;;;;;;;;;;;15.90;94.60;;;;;;4125900;28;19933;-39
2023/10/27 12:05:00;;;;;;;;;;;15.90;94.60;;;;;;4152840;28;20018;-40
2023/10/27 12:07:44;;;;;;;;;;;15.90;94.60;;;;;;4137300;28;19936;-40
2023/10/27 12:10:25;;;;;;;;;;;15.90;94.60;;;;;;4132767;28;20477;-40
2023/10/27 12:13:07;;;;;;;;;;;15.80;94.60;;;;;;4132398;28;19936;-40
2023/10/27 12:15:49;;;;;;;;;;;15.90;94.60;;;;;;4154674;28;19938;-40
2023/10/27 12:18:32;;;;;;;;;;;15.80;94.60;;;;;;4154710;28;19936;-40
2023/10/27 12:21:13;;;;;;;;;;;15.80;94.60;;;;;;4154180;28;19936;-40
2023/10/27 12:23:54;;;;;;;;;;;15.80;94.60;;;;;;4139415;28;19933;-40
2023/10/27 12:26:34;;;;;;;;;;;15.80;94.60;;;;;;4135470;28;20293;-41
2023/10/27 12:29:17;;;;;;;;;;;15.80;94.70;;;;;;4134277;28;20392;-40
2023/10/27 12:31:57;;;;;;;;;;;15.80;94.60;;;;;;4147835;28;20068;-40
2023/10/27 12:34:38;;;;;;;;;;;15.80;94.70;;;;;;4135288;28;20259;-41
2023/10/27 12:37:20;;;;;;;;;;;15.70;94.70;;;;;;4139190;28;19932;-40
2023/10/27 12:40:00;;;;;;;;;;;15.70;94.70;;;;;;4138049;28;20031;-39
2023/10/27 12:42:41;;;;;;;;;;;15.70;94.70;;;;;;4151690;28;19935;-40
2023/10/27 12:45:24;;;;;;;;;;;15.70;94.80;;;;;;4136964;28;19935;-40
2023/10/27 12:48:06;;;;;;;;;;;15.70;94.80;;;;;;4128793;28;19988;-40
2023/10/27 12:50:47;;;;;;;;;;;15.70;94.80;;;;;;4148645;28;19937;-41
2023/10/27 12:53:28;;;;;;;;;;;15.70;94.90;;;;;;4150689;28;19940;-40
2023/10/27 12:56:09;;;;;;;;;;;15.70;94.90;;;;;;4151951;28;19940;-40
2023/10/27 12:58:51;;;;;;;;;;;15.70;94.90;;;;;;4133524;28;19988;-40
2023/10/27 13:01:33;;;;;;;;;;;15.70;94.90;;;;;;4135347;28;20388;-45
2023/10/27 13:04:14;;;;;;;;;;;15.70;95.10;;;;;;4125618;28;19933;-41
2023/10/27 13:06:55;;;;;;;;;;;15.70;95.00;;;;;;4149861;28;19936;-41
2023/10/27 13:09:36;;;;;;;;;;;15.70;95.00;;;;;;4138131;28;20393;-40
2023/10/27 13:12:22;;;;;;;;;;;15.70;95.00;;;;;;4147168;28;19936;-40
2023/10/27 13:15:05;;;;;;;;;;;15.70;95.10;;;;;;4124581;28;19941;-40
2023/10/27 13:17:48;;;;;;;;;;;15.70;95.10;;;;;;4141186;28;20942;-40
2023/10/27 13:20:30;;;;;;;;;;;15.60;95.10;;;;;;4149256;28;19932;-40
2023/10/27 13:23:10;;;;;;;;;;;15.60;95.10;;;;;;4148795;28;19932;-40
2023/10/27 13:26:01;;;;;;;;;;;15.60;95.20;;;;;;4135993;28;19937;-40
2023/10/27 13:28:43;;;;;;;;;;;15.60;95.20;;;;;;4145696;28;19975;-40
2023/10/27 13:31:24;;;;;;;;;;;15.60;95.20;;;;;;4142317;28;19936;-40
2023/10/27 13:34:06;;;;;;;;;;;15.60;95.20;;;;;;4137345;28;19937;-41
2023/10/27 13:36:47;;;;;;;;;;;15.60;95.30;;;;;;4147604;28;19983;-40
2023/10/27 13:39:27;;;;;;;;;;;15.60;95.30;;;;;;4136557;28;20022;-40
2023/10/27 13:42:08;;;;;;;;;;;15.60;95.30;;;;;;4150429;28;19936;-40
2023/10/27 13:44:49;;;;;;;;;;;15.60;95.30;;;;;;4128393;28;19936;-41
2023/10/27 13:47:31;;;;;;;;;;;15.60;95.30;;;;;;4147490;28;20103;-40
2023/10/27 13:50:14;;;;;;;;;;;15.60;95.30;;;;;;4141694;28;19933;-40
2023/10/27 13:52:55;;;;;;;;;;;15.60;95.20;;;;;;4151378;28;20076;-41
2023/10/27 13:55:43;;;;;;;;;;;15.60;95.10;;;;;;4150073;28;19966;-40
2023/10/27 13:58:23;;;;;;;;;;;15.70;95.10;;;;;;4140780;28;19984;-41
2023/10/27 14:01:04;;;;;;;;;;;15.70;95.00;;;;;;4139576;28;19933;-40
2023/10/27 14:03:45;;;;;;;;;;;15.60;95.00;;;;;;4138234;28;19999;-41
2023/10/27 14:06:28;;;;;;;;;;;15.60;95.00;;;;;;4150625;28;19975;-40
2023/10/27 14:09:09;;;;;;;;;;;15.60;95.40;;;;;;4152757;28;19944;-41
2023/10/27 14:11:50;;;;;;;;;;;15.60;95.10;;;;;;4141532;28;19991;-40
2023/10/27 14:14:32;;;;;;;;;;;15.60;95.10;;;;;;4149378;28;19936;-40
2023/10/27 14:17:13;;;;;;;;;;;15.60;95.10;;;;;;4137899;28;20479;-41
2023/10/27 14:19:54;;;;;;;;;;;15.60;95.20;;;;;;4153083;28;19936;-41
2023/10/27 14:22:36;;;;;;;;;;;15.60;95.20;;;;;;4144679;28;19940;-41
2023/10/27 14:25:17;;;;;;;;;;;15.60;95.20;;;;;;4141412;28;19932;-41
2023/10/27 14:27:58;;;;;;;;;;;15.60;95.20;;;;;;4139668;28;19975;-41
2023/10/27 14:30:39;;;;;;;;;;;15.60;95.20;;;;;;4143598;28;19953;-41
2023/10/27 14:33:21;;;;;;;;;;;15.60;95.30;;;;;;4139578;28;19936;-41
2023/10/27 14:36:07;;;;;;;;;;;15.60;95.30;;;;;;4141545;28;19944;-44
2023/10/27 14:38:49;;;;;;;;;;;15.60;95.30;;;;;;4137482;28;19936;-41
2023/10/27 14:41:30;;;;;;;;;;;15.60;95.30;;;;;;4140519;28;20309;-41
2023/10/27 14:44:11;;;;;;;;;;;15.60;95.30;;;;;;4152690;28;19936;-41
2023/10/27 14:46:52;;;;;;;;;;;15.60;95.70;;;;;;4135860;28;19937;-41
2023/10/27 14:49:33;;;;;;;;;;;15.60;95.30;;;;;;4152188;28;19936;-41
2023/10/27 14:52:14;;;;;;;;;;;15.60;95.30;;;;;;4140025;28;20441;-41
2023/10/27 14:54:58;;;;;;;;;;;15.60;95.30;;;;;;4139754;28;20079;-41
2023/10/27 14:57:40;;;;;;;;;;;15.60;95.30;;;;;;4128258;28;19940;-40
2023/10/27 15:00:21;;;;;;;;;;;15.60;95.30;;;;;;4138227;28;19936;-41
2023/10/27 15:03:03;;;;;;;;;;;15.60;95.40;;;;;;4143542;28;19968;-41
2023/10/27 15:05:44;;;;;;;;;;;15.50;95.30;;;;;;4124788;28;19983;-42
2023/10/27 15:08:26;;;;;;;;;;;15.50;95.40;;;;;;4143532;28;20455;-41
2023/10/27 15:11:08;;;;;;;;;;;15.50;95.40;;;;;;4151596;28;20002;-41
2023/10/27 15:13:50;;;;;;;;;;;15.50;95.40;;;;;;4137264;28;20382;-41
2023/10/27 15:16:32;;;;;;;;;;;15.50;95.40;;;;;;4149249;28;20031;-41
2023/10/27 15:19:15;;;;;;;;;;;15.50;95.40;;;;;;4145753;28;20015;-41
2023/10/27 15:21:56;;;;;;;;;;;15.50;95.40;;;;;;4125121;28;20002;-43
2023/10/27 15:24:36;;;;;;;;;;;15.50;95.50;;;;;;4150078;28;19952;-47
2023/10/27 15:27:19;;;;;;;;;;;15.50;95.50;;;;;;4136462;28;19936;-46
2023/10/27 15:30:00;;;;;;;;;;;15.50;95.50;;;;;;4153036;28;19935;-44
2023/10/27 15:32:43;;;;;;;;;;;15.50;95.90;;;;;;4155032;28;19998;-44
2023/10/27 15:35:24;;;;;;;;;;;15.50;95.60;;;;;;4153981;28;19932;-45
2023/10/27 15:38:04;;;;;;;;;;;15.50;95.70;;;;;;4154702;28;19940;-45
2023/10/27 15:40:45;;;;;;;;;;;15.50;95.70;;;;;;4139617;28;20589;-45